Time;durP1;ratioP1;P1;durP2;ratioP2;P2;SDS_P1;SDS_P2;PMS_P1;PMS_P2;Temp;Humidity;BMP_temperature;BMP_pressure;BME280_temperature;BME280_humidity;BME280_pressure;Samples;Min_cycle;Max_cycle;Signal;HPM_P1;HPM_P2
2021/08/01 00:00:15;;;;;;;4.72;2.33;;;19.80;70.50;;;18.75;68.96;95263.06;4939802;28;20061;-71
2021/08/01 00:02:41;;;;;;;4.50;2.17;;;19.80;71.10;;;18.71;68.90;95254.00;4955181;28;20035;-70
2021/08/01 00:05:11;;;;;;;3.35;2.00;;;19.80;71.50;;;18.71;69.65;95256.66;4940227;28;20389;-70
2021/08/01 00:07:37;;;;;;;3.80;2.30;;;19.80;71.40;;;18.69;69.25;95258.78;4944123;28;20123;-70
2021/08/01 00:10:04;;;;;;;4.00;2.38;;;19.70;70.90;;;18.65;69.00;95254.00;4956877;28;20046;-71
2021/08/01 00:12:30;;;;;;;5.55;2.42;;;19.70;70.70;;;18.64;68.89;95247.06;4950983;28;20046;-70
2021/08/01 00:14:56;;;;;;;6.75;2.40;;;19.70;71.30;;;18.61;68.73;95247.56;4939590;28;20130;-70
2021/08/01 00:17:22;;;;;;;5.47;2.35;;;19.60;71.00;;;18.57;69.27;95240.34;4958601;28;20487;-69
2021/08/01 00:19:48;;;;;;;4.68;2.50;;;19.60;71.00;;;18.52;68.94;95248.28;4969357;28;20038;-71
2021/08/01 00:22:14;;;;;;;11.52;3.05;;;19.50;71.00;;;18.47;68.86;95245.63;4938823;28;20337;-70
2021/08/01 00:24:39;;;;;;;5.68;2.72;;;19.50;71.10;;;18.43;69.50;95249.84;4951696;28;20028;-69
2021/08/01 00:27:05;;;;;;;7.10;2.53;;;19.40;71.60;;;18.38;68.93;95249.84;4961309;28;20058;-69
2021/08/01 00:29:31;;;;;;;6.63;2.92;;;19.40;71.90;;;18.31;69.99;95248.19;4966805;28;20033;-69
2021/08/01 00:32:00;;;;;;;4.28;2.33;;;19.20;72.90;;;18.26;71.33;95248.16;4931099;28;20042;-69
2021/08/01 00:34:26;;;;;;;5.20;2.60;;;19.20;73.00;;;18.19;69.81;95255.59;4949815;28;20319;-70
2021/08/01 00:36:52;;;;;;;8.95;2.72;;;19.10;73.00;;;18.14;70.03;95260.09;4938408;28;20027;-70
2021/08/01 00:39:18;;;;;;;6.57;2.58;;;19.10;73.00;;;18.09;70.24;95262.69;4952813;28;20138;-71
2021/08/01 00:41:44;;;;;;;7.07;2.70;;;19.10;73.10;;;18.06;70.23;95267.47;4939998;28;20031;-70
2021/08/01 00:44:09;;;;;;;5.25;2.53;;;19.10;73.60;;;18.03;70.50;95264.53;4924293;28;20035;-70
2021/08/01 00:46:35;;;;;;;8.32;3.10;;;19.00;74.00;;;17.98;71.09;95269.81;4960601;28;20031;-70
2021/08/01 00:49:01;;;;;;;8.85;2.70;;;19.00;73.80;;;17.94;71.33;95263.41;4929578;28;20151;-70
2021/08/01 00:51:30;;;;;;;5.07;2.60;;;18.90;74.30;;;17.90;72.43;95257.78;4929728;28;20053;-70
2021/08/01 00:54:02;;;;;;;7.63;2.75;;;18.90;74.50;;;17.87;72.29;95257.47;4908738;28;20039;-69
2021/08/01 00:56:32;;;;;;;4.53;2.35;;;18.90;74.70;;;17.84;72.18;95258.00;4956405;28;20586;-70
2021/08/01 00:58:58;;;;;;;5.13;2.58;;;18.80;74.80;;;17.78;72.62;95256.34;4940284;28;20099;-70
2021/08/01 01:01:56;;;;;;;4.97;3.08;;;18.80;75.10;;;17.70;73.89;95255.78;4961009;28;20055;-70
2021/08/01 01:04:39;;;;;;;9.25;3.00;;;18.60;75.60;;;17.65;73.56;95247.72;4957659;28;20053;-70
2021/08/01 01:07:17;;;;;;;6.32;2.70;;;18.60;75.60;;;17.59;73.17;95254.03;4954898;28;20055;-70
2021/08/01 01:09:49;;;;;;;5.03;3.00;;;18.60;75.80;;;17.52;72.87;95250.81;4926522;29;20584;-70
2021/08/01 01:12:19;;;;;;;7.45;3.20;;;18.50;76.00;;;17.46;73.72;95246.50;4917236;29;20034;-71
2021/08/01 01:14:48;;;;;;;;;;;18.40;76.30;;;17.38;74.61;95250.41;4928705;28;20047;-70
2021/08/01 01:17:14;;;;;;;4.97;2.95;;;18.40;76.50;;;17.31;73.26;95247.16;4969201;28;19925;-69
2021/08/01 01:20:02;;;;;;;5.07;3.05;;;18.30;76.60;;;17.24;75.07;95249.22;4954973;28;20031;-71
2021/08/01 01:22:57;;;;;;;7.65;3.03;;;18.20;77.20;;;17.21;75.72;95257.69;4955722;28;20413;-70
2021/08/01 01:25:59;;;;;;;9.52;3.33;;;18.30;77.30;;;17.16;76.01;95257.63;4937202;28;20036;-69
2021/08/01 01:28:42;;;;;;;5.93;3.08;;;18.10;77.70;;;17.10;75.80;95264.75;4969671;28;20093;-70
2021/08/01 01:31:18;;;;;;;6.45;3.20;;;18.10;78.30;;;17.05;76.17;95251.41;4937966;28;20032;-71
2021/08/01 01:34:08;;;;;;;6.75;3.90;;;18.00;78.40;;;17.02;76.64;95257.25;4949404;28;20040;-71
2021/08/01 01:36:34;;;;;;;6.20;3.17;;;18.10;78.10;;;16.94;74.99;95249.69;4929464;28;20418;-70
2021/08/01 01:39:03;;;;;;;7.07;3.53;;;17.90;77.60;;;16.90;76.09;95243.28;4941700;28;20042;-71
2021/08/01 01:41:29;;;;;;;6.43;3.70;;;17.90;78.50;;;16.88;74.90;95234.75;4938847;28;20042;-71
2021/08/01 01:43:55;;;;;;;11.65;3.70;;;17.90;78.10;;;16.83;74.65;95216.13;4960697;28;20079;-70
2021/08/01 01:46:21;;;;;;;6.43;3.47;;;17.80;77.90;;;16.80;75.52;95185.56;4936272;28;20118;-71
2021/08/01 01:48:46;;;;;;;7.07;3.30;;;17.80;77.70;;;16.75;75.50;95184.69;4934074;28;20454;-71
2021/08/01 01:51:13;;;;;;;8.48;3.35;;;17.70;78.00;;;16.69;74.82;95185.69;4935510;28;20030;-71
2021/08/01 01:53:39;;;;;;;5.32;3.20;;;17.60;77.80;;;16.61;75.13;95186.09;4947408;28;20042;-70
2021/08/01 01:56:05;;;;;;;7.53;3.40;;;17.60;78.00;;;16.54;76.10;95181.78;4941628;28;20585;-70
2021/08/01 01:58:31;;;;;;;9.13;3.67;;;17.50;78.30;;;16.49;75.93;95173.75;4920442;29;20042;-71
2021/08/01 02:00:57;;;;;;;8.63;3.30;;;17.50;78.40;;;16.46;75.15;95174.25;4935722;28;20594;-71
2021/08/01 02:03:23;;;;;;;7.72;3.08;;;17.30;77.90;;;16.37;75.90;95159.81;4937282;28;20031;-70
2021/08/01 02:05:49;;;;;;;7.13;2.97;;;17.40;78.20;;;16.35;75.67;95143.34;4949923;28;20077;-70
2021/08/01 02:08:14;;;;;;;4.85;3.22;;;17.40;78.40;;;16.26;75.55;95105.00;4969975;28;20031;-70
2021/08/01 02:10:48;;;;;;;6.60;3.10;;;17.20;78.40;;;16.23;77.26;95098.34;4939719;28;20455;-70
2021/08/01 02:13:17;;;;;;;5.95;3.60;;;17.20;78.40;;;16.18;76.23;95092.19;4936741;28;20118;-70
2021/08/01 02:15:48;;;;;;;5.45;3.25;;;17.20;78.50;;;16.14;76.88;95097.19;4931695;28;20041;-70
2021/08/01 02:18:21;;;;;;;8.02;3.42;;;17.00;79.20;;;16.07;76.29;95098.41;4934433;28;20027;-70
2021/08/01 02:20:49;;;;;;;7.05;3.10;;;17.00;78.80;;;16.04;76.05;95097.06;4938969;28;20519;-70
2021/08/01 02:23:18;;;;;;;6.35;3.00;;;17.10;79.10;;;16.01;77.05;95107.38;4938040;28;20039;-71
2021/08/01 02:25:44;;;;;;;6.85;3.22;;;17.00;79.40;;;15.98;76.89;95102.56;4965986;28;20582;-70
2021/08/01 02:28:10;;;;;;;6.13;2.80;;;17.00;79.80;;;15.96;76.13;95109.97;4959825;28;20049;-70
2021/08/01 02:30:36;;;;;;;6.57;3.25;;;16.90;79.30;;;15.88;76.73;95104.06;4933663;28;20123;-70
2021/08/01 02:33:02;;;;;;;8.20;3.50;;;16.90;79.30;;;15.88;77.22;95103.25;4935725;28;20043;-70
2021/08/01 02:35:28;;;;;;;7.22;2.92;;;16.80;79.90;;;15.87;77.44;95097.16;4936311;29;20400;-70
2021/08/01 02:37:55;;;;;;;5.95;3.10;;;16.80;79.50;;;15.82;77.57;95102.34;4931135;28;20075;-70
2021/08/01 02:40:21;;;;;;;6.18;3.10;;;16.80;80.20;;;15.79;76.69;95094.91;4923776;28;20040;-70
2021/08/01 02:42:47;;;;;;;6.00;3.45;;;16.80;79.70;;;15.75;77.73;95091.13;4914124;28;20521;-71
2021/08/01 02:45:12;;;;;;;6.35;3.45;;;16.70;80.10;;;15.75;77.14;95085.84;4927873;28;20167;-71
2021/08/01 02:47:38;;;;;;;6.68;3.50;;;16.80;80.20;;;15.72;77.23;95083.69;4950892;28;20032;-70
2021/08/01 02:50:04;;;;;;;5.25;3.63;;;16.70;80.60;;;15.72;78.36;95104.09;4937239;28;20105;-70
2021/08/01 02:52:58;;;;;;;6.53;3.97;;;16.60;80.80;;;15.72;79.85;95112.84;4907403;29;20066;-70
2021/08/01 02:55:26;;;;;;;6.13;3.70;;;16.70;81.10;;;15.69;77.65;95092.13;4951314;28;20031;-70
2021/08/01 02:57:52;;;;;;;5.32;3.38;;;16.70;81.10;;;15.66;78.29;95067.97;4924464;28;20112;-70
2021/08/01 03:00:18;;;;;;;6.82;4.10;;;16.70;81.00;;;15.64;79.02;95078.81;4958266;28;20047;-70
2021/08/01 03:02:46;;;;;;;7.55;3.97;;;16.60;81.60;;;15.62;78.99;95086.22;4911158;29;20085;-70
2021/08/01 03:05:12;;;;;;;5.25;3.80;;;16.60;81.60;;;15.58;78.38;95103.59;4928005;28;20042;-70
2021/08/01 03:07:38;;;;;;;7.10;3.60;;;16.50;81.30;;;15.53;78.86;95116.78;4923441;28;20043;-70
2021/08/01 03:10:05;;;;;;;6.18;3.25;;;16.40;81.60;;;15.49;78.36;95113.81;4919361;28;20046;-70
2021/08/01 03:12:30;;;;;;;4.68;3.20;;;16.40;81.60;;;15.48;79.56;95125.47;4946543;28;20070;-70
2021/08/01 03:14:56;;;;;;;5.55;3.47;;;16.40;81.70;;;15.47;79.00;95133.66;4957060;28;20038;-70
2021/08/01 03:17:22;;;;;;;6.60;3.60;;;16.40;81.20;;;15.47;79.26;95149.56;4941522;28;20538;-70
2021/08/01 03:19:48;;;;;;;7.38;4.03;;;16.50;81.30;;;15.46;79.22;95147.97;4954704;28;20506;-70
2021/08/01 03:22:13;;;;;;;5.18;3.58;;;16.40;81.70;;;15.46;78.30;95145.31;4930749;29;20039;-70
2021/08/01 03:24:39;;;;;;;5.97;3.90;;;16.50;81.70;;;15.44;78.53;95139.47;4964524;28;20038;-70
2021/08/01 03:27:05;;;;;;;6.70;4.20;;;16.50;81.30;;;15.44;79.16;95115.59;4950280;28;20043;-70
2021/08/01 03:29:31;;;;;;;8.60;4.22;;;16.50;81.50;;;15.45;79.56;95106.59;4946577;28;20042;-70
2021/08/01 03:31:56;;;;;;;6.65;3.85;;;16.60;81.60;;;15.46;78.98;95098.41;4954125;28;20086;-70
2021/08/01 03:34:22;;;;;;;6.18;3.95;;;16.60;81.40;;;15.45;79.06;95101.31;4954878;28;20067;-70
2021/08/01 03:36:48;;;;;;;7.13;3.40;;;16.50;81.50;;;15.43;79.27;95106.84;4962293;28;20093;-70
2021/08/01 03:39:14;;;;;;;6.50;2.90;;;16.50;81.40;;;15.39;79.05;95129.59;4952297;28;20038;-70
2021/08/01 03:41:40;;;;;;;5.75;2.95;;;16.40;81.30;;;15.37;79.36;95163.44;4939026;28;20430;-70
2021/08/01 03:44:05;;;;;;;5.00;2.95;;;16.20;81.70;;;15.35;79.55;95183.28;4970703;28;20035;-70
2021/08/01 03:46:31;;;;;;;3.85;2.70;;;16.40;81.80;;;15.29;79.85;95228.25;4944057;28;20113;-70
2021/08/01 03:48:57;;;;;;;3.42;2.17;;;16.30;81.70;;;15.28;78.43;95258.44;4934202;28;20042;-70
2021/08/01 03:51:23;;;;;;;6.50;2.95;;;16.20;82.00;;;15.23;78.86;95279.53;4966881;28;20042;-72
2021/08/01 03:53:48;;;;;;;6.28;3.65;;;16.10;83.30;;;15.18;79.87;95299.84;4968617;28;20039;-73
2021/08/01 03:56:14;;;;;;;4.88;2.88;;;16.00;83.80;;;15.14;80.68;95262.41;4954198;28;20058;-69
2021/08/01 03:58:40;;;;;;;6.43;3.13;;;16.00;83.40;;;15.12;79.45;95232.72;4934478;28;20067;-69
2021/08/01 04:01:05;;;;;;;5.10;3.25;;;16.10;83.60;;;15.12;80.39;95216.81;4959970;28;20074;-71
2021/08/01 04:03:31;;;;;;;5.65;2.85;;;16.20;82.80;;;15.14;79.50;95230.63;4928129;28;20068;-68
2021/08/01 04:05:57;;;;;;;3.67;2.30;;;16.30;82.90;;;15.09;79.99;95225.25;4953626;28;20080;-69
2021/08/01 04:08:22;;;;;;;5.72;2.22;;;16.10;82.60;;;15.07;81.08;95229.97;4952345;28;20043;-69
2021/08/01 04:10:48;;;;;;;3.35;2.28;;;16.20;82.50;;;15.10;81.48;95234.78;4952384;28;20448;-69
2021/08/01 04:13:14;;;;;;;4.13;2.60;;;16.20;82.80;;;15.11;80.68;95219.72;4936068;28;20523;-69
2021/08/01 04:15:48;;;;;;;3.85;1.90;;;16.30;82.50;;;15.12;81.66;95227.41;4933794;28;20050;-69
2021/08/01 04:18:13;;;;;;;4.47;2.28;;;16.20;82.60;;;15.12;81.28;95231.91;4940280;28;21479;-68
2021/08/01 04:20:39;;;;;;;4.57;1.80;;;16.30;82.50;;;15.12;80.99;95243.31;4936633;28;20122;-69
2021/08/01 04:23:05;;;;;;;2.45;1.70;;;16.30;82.20;;;15.13;79.98;95238.81;4936209;29;20062;-69
2021/08/01 04:25:31;;;;;;;4.32;1.90;;;16.30;82.30;;;15.11;79.82;95231.09;4951083;28;20039;-69
2021/08/01 04:27:56;;;;;;;3.10;1.63;;;16.20;82.30;;;15.10;80.46;95237.44;4935916;28;20042;-69
2021/08/01 04:30:22;;;;;;;3.45;1.60;;;16.30;82.20;;;15.08;80.03;95259.91;4943565;28;20463;-69
2021/08/01 04:32:48;;;;;;;3.22;1.60;;;16.20;82.30;;;15.06;80.11;95268.09;4967455;28;20523;-69
2021/08/01 04:35:14;;;;;;;2.65;1.65;;;16.10;82.90;;;15.06;79.84;95262.00;4933890;28;20043;-68
2021/08/01 04:37:40;;;;;;;3.30;1.60;;;16.10;82.80;;;15.02;81.42;95261.69;4948787;28;20106;-67
2021/08/01 04:40:06;;;;;;;1.80;1.45;;;16.10;82.80;;;15.03;80.55;95271.22;4948238;28;20039;-66
2021/08/01 04:42:32;;;;;;;2.80;1.70;;;16.10;82.80;;;15.05;81.17;95277.09;4949502;28;20035;-68
2021/08/01 04:44:58;;;;;;;1.90;1.67;;;16.20;82.60;;;15.05;80.29;95274.44;4952292;28;20062;-67
2021/08/01 04:47:23;;;;;;;1.98;1.42;;;16.30;82.60;;;15.11;81.83;95283.28;4938208;28;20071;-67
2021/08/01 04:49:50;;;;;;;7.45;6.25;;;16.20;83.10;;;15.08;81.99;95289.06;4933314;28;20105;-67
2021/08/01 04:52:16;;;;;;;6.72;5.40;;;16.10;83.50;;;15.11;81.78;95293.88;4950753;28;20744;-65
2021/08/01 04:54:42;;;;;;;1.85;1.60;;;16.30;83.30;;;15.10;80.81;95302.84;4954638;28;20039;-67
2021/08/01 04:57:09;;;;;;;2.00;1.40;;;16.20;83.00;;;15.13;81.54;95300.53;4950310;28;20035;-69
2021/08/01 04:59:34;;;;;;;2.85;1.15;;;16.30;82.90;;;15.15;81.55;95289.69;4942600;28;20041;-70
2021/08/01 05:02:01;;;;;;;4.38;3.25;;;16.40;82.90;;;15.22;81.78;95290.38;4933023;28;20134;-68
2021/08/01 05:04:28;;;;;;;15.80;4.07;;;16.30;82.70;;;15.22;80.68;95280.59;4950133;28;20437;-68
2021/08/01 05:06:54;;;;;;;2.53;1.33;;;16.40;82.80;;;15.24;81.55;95278.50;4951159;28;20499;-68
2021/08/01 05:09:19;;;;;;;1.70;1.17;;;16.30;82.50;;;15.24;80.46;95281.16;4950684;28;20074;-68
2021/08/01 05:11:45;;;;;;;2.88;1.40;;;16.20;83.00;;;15.23;81.58;95266.31;4952867;28;20042;-69
2021/08/01 05:14:11;;;;;;;4.20;1.80;;;16.30;82.50;;;15.25;80.69;95272.16;4920665;28;20039;-68
2021/08/01 05:16:36;;;;;;;7.85;2.42;;;16.30;82.70;;;15.25;81.18;95274.00;4935184;28;20097;-68
2021/08/01 05:19:02;;;;;;;3.85;3.20;;;16.30;82.30;;;15.26;81.38;95297.63;4949550;28;20066;-68
2021/08/01 05:21:28;;;;;;;2.55;1.10;;;16.50;82.60;;;15.30;81.03;95309.34;4956090;28;20076;-71
2021/08/01 05:23:54;;;;;;;2.42;1.40;;;16.50;82.00;;;15.28;81.07;95321.22;4955302;28;20407;-68
2021/08/01 05:26:19;;;;;;;2.20;1.27;;;16.40;82.10;;;15.25;81.26;95325.16;4949970;28;20070;-68
2021/08/01 05:28:45;;;;;;;2.97;1.23;;;16.30;82.40;;;15.26;80.78;95328.59;4949558;28;20066;-67
2021/08/01 05:31:11;;;;;;;3.28;1.40;;;16.40;82.10;;;15.22;80.43;95322.97;4933571;28;20035;-72
2021/08/01 05:33:37;;;;;;;2.45;1.30;;;16.40;82.10;;;15.23;80.65;95326.44;4919248;29;20062;-72
2021/08/01 05:36:09;;;;;;;2.47;1.50;;;16.50;81.90;;;15.22;81.47;95338.88;4947254;28;20796;-72
2021/08/01 05:38:36;;;;;;;3.17;1.73;;;16.20;82.20;;;15.22;81.26;95327.47;4930891;29;20110;-72
2021/08/01 05:41:02;;;;;;;1.77;1.40;;;16.30;82.30;;;15.21;81.49;95336.47;4916824;28;20035;-66
2021/08/01 05:43:27;;;;;;;2.78;1.90;;;16.30;82.60;;;15.18;81.42;95337.75;4934244;28;20698;-67
2021/08/01 05:45:53;;;;;;;3.33;1.50;;;16.20;82.60;;;15.21;81.85;95347.88;4917603;28;20102;-67
2021/08/01 05:48:19;;;;;;;3.03;1.50;;;16.40;82.50;;;15.20;80.39;95362.16;4933199;28;20724;-67
2021/08/01 05:50:44;;;;;;;1.98;1.52;;;16.30;82.70;;;15.16;80.39;95361.03;4948841;28;20039;-67
2021/08/01 05:53:10;;;;;;;3.58;1.73;;;16.10;83.10;;;15.11;81.60;95368.03;4936374;28;20042;-67
2021/08/01 05:55:36;;;;;;;2.13;1.50;;;16.10;83.20;;;15.07;81.91;95375.66;4964174;28;20035;-70
2021/08/01 05:58:02;;;;;;;3.22;2.60;;;16.00;83.10;;;15.01;81.34;95360.69;4947302;28;20060;-70
2021/08/01 06:00:27;;;;;;;5.43;4.47;;;16.00;83.60;;;15.02;82.00;95372.91;4915561;29;20119;-70
2021/08/01 06:02:54;;;;;;;3.20;2.55;;;16.10;83.40;;;15.07;81.29;95382.78;4945733;28;20078;-70
2021/08/01 06:05:20;;;;;;;4.40;2.60;;;16.20;83.10;;;15.08;80.77;95379.91;4918847;29;20031;-70
2021/08/01 06:07:45;;;;;;;7.00;6.25;;;16.20;83.20;;;15.11;82.42;95383.94;4952156;28;20047;-68
2021/08/01 06:10:11;;;;;;;2.60;1.80;;;16.30;83.00;;;15.12;81.06;95386.34;4950607;28;20543;-69
2021/08/01 06:12:37;;;;;;;2.38;1.85;;;16.20;81.90;;;15.09;81.29;95386.81;4953726;28;20522;-68
2021/08/01 06:15:03;;;;;;;3.17;1.85;;;16.20;82.50;;;15.10;81.16;95384.97;4934714;28;20032;-71
2021/08/01 06:17:29;;;;;;;2.15;1.70;;;16.30;82.30;;;15.13;81.15;95387.94;4960348;28;20031;-70
2021/08/01 06:19:55;;;;;;;2.85;1.73;;;16.20;80.50;;;15.13;79.67;95393.25;4928462;28;20075;-68
2021/08/01 06:22:24;;;;;;;3.05;1.63;;;16.20;80.30;;;15.12;80.48;95394.28;4940466;28;20038;-70
2021/08/01 06:24:50;;;;;;;3.10;1.73;;;16.20;80.40;;;15.13;79.79;95387.16;4938174;28;20054;-70
2021/08/01 06:27:16;;;;;;;3.63;2.00;;;16.40;80.40;;;15.13;79.58;95392.44;4963642;28;20031;-68
2021/08/01 06:29:41;;;;;;;4.30;2.10;;;16.30;80.10;;;15.13;80.12;95393.25;4949506;28;20031;-68
2021/08/01 06:32:07;;;;;;;2.65;2.10;;;16.40;79.80;;;15.22;78.71;95397.16;4968076;28;20035;-68
2021/08/01 06:34:33;;;;;;;5.07;2.22;;;16.60;79.40;;;15.23;78.75;95393.47;4951933;28;20122;-68
2021/08/01 06:36:58;;;;;;;3.35;2.00;;;16.60;78.70;;;15.26;79.73;95393.00;4950759;28;20025;-69
2021/08/01 06:39:24;;;;;;;7.43;3.20;;;16.60;78.90;;;15.23;79.29;95397.97;4958973;28;20034;-68
2021/08/01 06:41:50;;;;;;;11.07;9.05;;;16.60;78.40;;;15.31;79.59;95408.97;4947106;28;20027;-68
2021/08/01 06:44:16;;;;;;;7.68;3.85;;;16.70;78.70;;;15.39;79.25;95414.94;4944584;28;20567;-68
2021/08/01 06:46:41;;;;;;;4.15;2.50;;;16.80;78.50;;;15.41;78.28;95419.00;4931326;28;20024;-68
2021/08/01 06:49:07;;;;;;;4.85;1.98;;;16.80;78.70;;;15.45;79.26;95424.63;4902522;29;20070;-67
2021/08/01 06:51:33;;;;;;;3.55;2.50;;;16.60;78.20;;;15.44;78.93;95421.16;4918734;29;20114;-67
2021/08/01 06:53:59;;;;;;;4.82;2.47;;;16.80;78.10;;;15.48;78.13;95417.00;4918493;28;20082;-68
2021/08/01 06:56:24;;;;;;;5.10;3.92;;;16.90;78.30;;;15.57;78.97;95409.47;4940254;28;20046;-68
2021/08/01 06:58:50;;;;;;;4.55;3.95;;;17.10;78.10;;;15.69;77.79;95404.97;4953627;28;20038;-68
2021/08/01 07:01:16;;;;;;;7.05;3.75;;;17.20;77.50;;;15.82;78.18;95415.25;4945333;28;20038;-68
2021/08/01 07:03:41;;;;;;;3.35;2.47;;;17.60;77.10;;;15.96;77.76;95414.97;4969960;28;20514;-68
2021/08/01 07:06:10;;;;;;;3.05;2.50;;;17.60;77.00;;;16.02;77.52;95417.47;4962187;28;20566;-68
2021/08/01 07:08:37;;;;;;;3.58;2.42;;;17.60;75.50;;;16.08;76.96;95411.22;4938595;28;20569;-68
2021/08/01 07:11:03;;;;;;;8.35;3.85;;;17.60;75.80;;;16.16;77.69;95415.31;4922515;29;20037;-69
2021/08/01 07:13:28;;;;;;;4.93;2.78;;;17.70;75.30;;;16.21;77.17;95418.06;4906713;29;20059;-68
2021/08/01 07:16:03;;;;;;;4.55;2.40;;;17.70;74.70;;;16.21;77.21;95420.72;4967511;28;20039;-68
2021/08/01 07:18:29;;;;;;;2.83;2.38;;;17.60;75.90;;;16.23;76.33;95413.31;4974455;28;20042;-68
2021/08/01 07:20:56;;;;;;;6.53;4.32;;;17.70;76.00;;;16.27;76.21;95419.75;4957236;28;20560;-68
2021/08/01 07:23:21;;;;;;;5.55;2.60;;;17.60;75.90;;;16.30;76.30;95429.09;4937991;28;20062;-68
2021/08/01 07:25:47;;;;;;;4.03;2.47;;;17.70;75.40;;;16.34;76.85;95425.72;4953940;28;20498;-68
2021/08/01 07:28:13;;;;;;;4.13;2.40;;;17.70;75.70;;;16.36;76.32;95428.94;4937207;28;20063;-68
2021/08/01 07:30:39;;;;;;;4.55;2.78;;;17.80;75.10;;;16.42;76.21;95433.25;4954002;28;20043;-68
2021/08/01 07:33:04;;;;;;;3.22;2.10;;;18.00;75.40;;;16.50;76.56;95430.19;4925198;28;20585;-69
2021/08/01 07:35:30;;;;;;;3.40;2.33;;;18.20;74.60;;;16.57;75.99;95437.22;4923486;28;20582;-68
2021/08/01 07:37:56;;;;;;;4.80;2.50;;;18.10;74.30;;;16.66;75.99;95427.78;4937560;28;20435;-68
2021/08/01 07:40:22;;;;;;;4.35;2.33;;;18.20;74.60;;;16.78;76.22;95421.38;4953629;28;20105;-68
2021/08/01 07:42:47;;;;;;;4.20;2.58;;;18.50;74.50;;;16.89;75.46;95416.19;4938713;29;20082;-68
2021/08/01 07:45:24;;;;;;;3.35;2.38;;;18.70;73.30;;;16.97;75.64;95413.91;4938236;29;20086;-68
2021/08/01 07:47:51;;;;;;;3.53;2.45;;;18.70;73.10;;;17.10;74.74;95434.00;4940149;28;20043;-68
2021/08/01 07:50:16;;;;;;;2.95;2.08;;;18.70;71.80;;;17.19;74.04;95421.09;4961263;28;20499;-68
2021/08/01 07:52:42;;;;;;;3.95;2.33;;;19.10;70.40;;;17.35;73.65;95425.56;4941831;28;20034;-68
2021/08/01 07:55:09;;;;;;;2.92;2.15;;;19.30;70.50;;;17.51;74.29;95429.19;4922092;28;20059;-68
2021/08/01 07:57:34;;;;;;;3.55;2.47;;;19.30;71.00;;;17.59;72.92;95436.72;4953568;28;20027;-68
2021/08/01 08:00:04;;;;;;;2.78;2.42;;;19.40;68.70;;;17.61;71.36;95434.63;4936709;28;20058;-68
2021/08/01 08:02:30;;;;;;;7.68;5.50;;;19.30;68.60;;;17.65;72.16;95436.56;4952929;28;20460;-67
2021/08/01 08:04:56;;;;;;;8.80;6.97;;;19.30;68.60;;;17.70;71.66;95426.00;4961484;28;20114;-67
2021/08/01 08:07:21;;;;;;;9.82;6.82;;;19.30;69.00;;;17.74;72.09;95434.28;4940625;28;20503;-67
2021/08/01 08:09:48;;;;;;;5.03;2.80;;;19.40;69.70;;;17.74;72.17;95445.72;4928077;29;20504;-67
2021/08/01 08:12:14;;;;;;;6.03;4.28;;;19.30;69.30;;;17.71;71.07;95450.75;4933562;29;20027;-67
2021/08/01 08:14:39;;;;;;;5.35;3.30;;;19.10;69.20;;;17.60;71.35;95441.00;4953584;29;20406;-67
2021/08/01 08:17:05;;;;;;;6.57;3.47;;;18.80;70.00;;;17.52;70.83;95430.81;4921579;29;20032;-67
2021/08/01 08:19:31;;;;;;;3.58;2.38;;;18.70;70.90;;;17.47;71.59;95434.22;4953168;28;20035;-68
2021/08/01 08:21:57;;;;;;;4.03;2.40;;;18.70;70.50;;;17.46;71.57;95432.63;4953825;28;20139;-67
2021/08/01 08:24:26;;;;;;;3.45;2.63;;;18.80;70.40;;;17.46;72.11;95432.63;4937156;28;20139;-68
2021/08/01 08:26:52;;;;;;;6.97;6.18;;;18.80;71.10;;;17.47;71.74;95426.25;4937305;29;20530;-67
2021/08/01 08:29:18;;;;;;;6.63;4.10;;;19.00;71.70;;;17.49;72.07;95426.00;4936737;29;20043;-67
2021/08/01 08:31:49;;;;;;;12.20;4.75;;;19.10;70.40;;;17.52;72.19;95436.94;4952850;28;20031;-68
2021/08/01 08:34:15;;;;;;;4.70;3.65;;;19.10;71.20;;;17.50;71.47;95439.03;4937125;28;20038;-67
2021/08/01 08:36:41;;;;;;;4.28;2.80;;;18.90;70.30;;;17.49;72.23;95426.00;4956677;28;20043;-69
2021/08/01 08:39:06;;;;;;;5.47;3.22;;;19.00;70.70;;;17.58;71.83;95422.63;4936636;29;20122;-69
2021/08/01 08:41:33;;;;;;;7.50;2.90;;;19.20;71.40;;;17.68;72.67;95435.28;4952315;28;20073;-68
2021/08/01 08:43:59;;;;;;;7.82;2.95;;;19.40;70.70;;;17.78;72.57;95434.59;4936214;28;20039;-68
2021/08/01 08:46:24;;;;;;;3.25;2.05;;;19.60;70.70;;;17.89;71.41;95436.31;4936485;29;20035;-69
2021/08/01 08:48:50;;;;;;;4.97;2.40;;;19.60;69.20;;;17.96;72.17;95428.91;4952190;28;20538;-68
2021/08/01 08:51:16;;;;;;;2.75;2.10;;;19.70;69.70;;;18.01;71.13;95435.09;4948129;28;20042;-68
2021/08/01 08:53:51;;;;;;;4.35;2.13;;;19.60;67.10;;;17.99;70.52;95436.41;4955958;28;20093;-68
2021/08/01 08:56:16;;;;;;;5.97;2.60;;;19.60;67.80;;;18.04;70.60;95441.75;4971349;28;20081;-68
2021/08/01 08:58:42;;;;;;;3.10;2.22;;;19.60;67.90;;;18.12;70.90;95443.97;4955665;28;20074;-68
2021/08/01 09:01:08;;;;;;;10.95;9.60;;;19.80;67.90;;;18.16;70.49;95446.94;4955196;28;20039;-69
2021/08/01 09:03:34;;;;;;;10.75;6.53;;;19.80;67.70;;;18.19;70.53;95444.56;4955479;28;20043;-68
2021/08/01 09:06:00;;;;;;;3.80;2.83;;;19.70;68.40;;;18.24;69.92;95443.81;4927143;28;20028;-68
2021/08/01 09:08:26;;;;;;;2.80;2.22;;;19.90;67.80;;;18.30;69.84;95442.78;4975368;28;20130;-68
2021/08/01 09:10:55;;;;;;;3.40;2.40;;;20.00;66.70;;;18.38;69.88;95438.88;4920347;29;20066;-68
2021/08/01 09:13:50;;;;;;;4.60;1.92;;;20.10;66.90;;;18.46;68.62;95441.06;4920176;29;20674;-68
2021/08/01 09:16:17;;;;;;;4.80;2.03;;;20.10;66.70;;;18.47;68.51;95432.03;4952685;28;20466;-68
2021/08/01 09:18:44;;;;;;;3.88;2.05;;;20.10;65.30;;;18.47;68.49;95453.31;4920557;29;20039;-68
2021/08/01 09:21:10;;;;;;;3.78;1.92;;;20.00;64.80;;;18.52;68.10;95453.34;4920177;28;20043;-68
2021/08/01 09:23:36;;;;;;;11.57;8.25;;;20.10;64.90;;;18.59;68.15;95446.78;4935798;28;20507;-68
2021/08/01 09:26:04;;;;;;;9.02;5.97;;;20.30;64.50;;;18.77;67.65;95447.44;4935437;28;20046;-68
2021/08/01 09:28:30;;;;;;;4.60;2.72;;;20.70;64.40;;;18.90;67.57;95453.16;4935979;29;20118;-68
2021/08/01 09:31:00;;;;;;;2.65;1.55;;;21.00;62.90;;;19.08;66.57;95448.47;4935894;29;20170;-68
2021/08/01 09:33:43;;;;;;;2.55;1.75;;;21.10;61.30;;;19.26;65.92;95450.69;4951692;28;20039;-68
2021/08/01 09:36:25;;;;;;;4.15;2.08;;;21.20;62.00;;;19.47;63.04;95457.75;4916530;28;20048;-69
2021/08/01 09:38:59;;;;;;;4.15;3.20;;;21.50;58.60;;;19.67;63.49;95450.88;4944239;28;20499;-69
2021/08/01 09:41:36;;;;;;;5.30;2.70;;;21.80;59.10;;;19.81;64.41;95454.69;4939722;28;20552;-68
2021/08/01 09:44:07;;;;;;;3.20;1.73;;;21.90;59.70;;;19.95;61.98;95455.00;4954632;28;20085;-69
2021/08/01 09:46:49;;;;;;;3.40;1.55;;;21.80;57.40;;;20.05;61.69;95453.13;4939488;28;20590;-68
2021/08/01 09:49:18;;;;;;;2.60;2.30;;;22.10;57.90;;;20.14;63.17;95446.22;4938877;28;20035;-68
2021/08/01 09:51:52;;;;;;;5.43;3.10;;;22.10;57.70;;;20.23;61.25;95443.03;4955284;28;20034;-68
2021/08/01 09:54:19;;;;;;;5.05;2.28;;;22.10;57.30;;;20.26;62.84;95445.16;4955905;28;20077;-67
2021/08/01 09:56:59;;;;;;;2.63;1.70;;;22.10;57.20;;;20.25;62.04;95440.88;4935441;29;20055;-68
2021/08/01 09:59:29;;;;;;;2.00;1.45;;;21.80;59.00;;;20.19;62.16;95438.22;4935316;29;20126;-68
2021/08/01 10:01:57;;;;;;;2.57;1.63;;;21.80;58.40;;;20.13;62.67;95435.78;4935169;28;20038;-67
2021/08/01 10:04:29;;;;;;;3.15;1.70;;;21.70;59.70;;;20.08;62.27;95435.78;4951575;28;20063;-67
2021/08/01 10:07:15;;;;;;;2.75;1.60;;;21.70;59.20;;;19.99;62.04;95432.03;4951804;28;20081;-67
2021/08/01 10:09:45;;;;;;;3.33;2.05;;;21.40;60.00;;;19.96;62.75;95427.22;4946376;28;20114;-67
2021/08/01 10:12:12;;;;;;;2.00;1.67;;;21.40;60.40;;;19.97;62.40;95432.31;4922727;28;20039;-67
2021/08/01 10:14:38;;;;;;;2.40;1.80;;;21.50;59.80;;;20.04;62.49;95430.16;4927660;29;20031;-68
2021/08/01 10:17:04;;;;;;;4.60;1.70;;;21.70;59.20;;;20.11;62.63;95429.91;4919719;28;20035;-69
2021/08/01 10:19:30;;;;;;;2.50;1.42;;;21.70;58.80;;;20.24;61.74;95431.28;4919848;29;20468;-68
2021/08/01 10:21:58;;;;;;;2.15;1.45;;;22.10;58.50;;;20.33;61.56;95432.34;4953678;28;20035;-68